Terminal Aerodrome Forecast
Issued by NWS Charleston, WV

Current Version | Previous Version | Text Only | Print | Product List | Glossary Off
Versions: 1 2 3 4 5 6 7 8 9 10 11 12 13 14 15 16 17 18 19 20 21

000
FTUS41 KRLX 011737
TAFHTS
TAF
KHTS 011737Z 0118/0218 VRB03KT P6SM FEW035 SCT045
     FM020700 00000KT 5SM BR SCT035
     FM020800 00000KT 2SM BR FEW060
     FM020900 00000KT 1/2SM FG VV001
     FM021200 00000KT 3/4SM BR SCT001 SCT060
     FM021300 00000KT P6SM SCT060
     FM021700 VRB03KT P6SM BKN050=

USA.gov is the U.S. government's official web portal to all federal, state and local government web resources and services.